Date,TemperatureHighF,TemperatureAvgF,TemperatureLowF,DewpointHighF,DewpointAvgF,DewpointLowF,HumidityHigh,HumidityAvg,HumidityLow,PressureMaxIn,PressureMinIn,WindSpeedMaxMPH,WindSpeedAvgMPH,GustSpeedMaxMPH,PrecipitationSumIn
2012-5-21,58.8,58.3,57.4,58.3,57.5,56.8,98,97,97,29.77,29.71,2,0,2,0.04
2012-5-22,60.3,58.6,56.8,59.7,57.9,3.5,98,97,96,29.71,29.45,4,1,4,0.61
2012-5-23,79.2,65.9,58.5,66.3,60.8,-46.8,99,84,61,29.72,29.51,4,2,4,0.00
2012-5-24,78.4,66.3,57.9,64.8,60.1,56.4,98,82,60,30.25,29.72,8,2,8,0.00
2012-5-25,79.0,66.1,57.6,68.8,61.9,55.9,97,87,63,29.92,29.77,6,2,6,0.00
2012-5-26,77.4,71.0,63.1,70.4,66.8,62.2,98,87,76,30.08,29.65,6,2,6,0.00
2012-5-27,75.2,67.0,61.3,64.2,59.0,53.9,97,77,53,30.11,29.67,5,2,5,0.00
2012-5-28,66.4,62.7,59.4,64.2,59.9,56.6,97,91,82,29.67,29.59,4,1,4,0.00
2012-5-29,86.0,68.4,57.6,71.9,63.3,56.1,98,85,55,29.88,29.35,11,2,11,0.00
2012-5-30,77.5,69.7,49.3,68.8,64.5,41.0,96,84,63,29.72,29.32,4,0,4,0.00
2012-5-31,84.9,70.5,59.4,67.4,58.1,50.8,97,69,33,29.87,29.34,6,1,6,0.00
2012-6-1,72.1,62.6,56.7,60.1,53.2,46.6,95,73,49,30.10,29.51,8,2,8,0.00
2012-6-2,64.6,58.4,37.4,62.8,56.3,35.8,98,93,86,29.84,29.35,12,3,12,0.83
2012-6-3,64.6,58.2,52.5,62.2,55.1,49.5,98,89,79,29.81,29.25,8,2,8,0.05
2012-6-4,52.9,51.4,50.4,51.2,49.6,21.0,96,94,90,29.40,29.18,9,3,9,0.14
2012-6-5,55.2,52.1,47.8,49.5,48.0,45.8,94,86,78,29.93,29.39,6,1,6,0.01
2012-6-6,66.4,56.9,45.3,54.9,50.3,44.0,96,80,55,30.01,29.57,6,1,6,0.00
2012-6-7,72.0,58.3,49.5,60.3,54.5,47.8,96,88,64,29.97,29.56,4,0,4,0.06
2012-6-8,79.7,64.4,52.5,63.2,57.3,51.4,97,80,48,29.58,29.41,8,2,8,0.00
2012-6-9,85.1,68.9,57.9,58.5,53.1,44.3,89,61,29,29.58,29.41,8,1,8,0.01
2012-6-10,81.5,67.3,55.0,58.7,53.5,43.0,92,65,28,29.88,29.57,6,1,6,0.00
2012-6-11,76.3,63.9,50.5,59.1,53.3,48.3,94,70,48,30.29,29.87,8,2,8,0.00
2012-6-12,67.5,61.6,59.5,60.0,56.1,51.7,90,82,73,29.87,29.64,5,1,5,0.00
2012-6-13,65.3,62.0,59.0,63.2,60.2,57.0,96,94,85,30.22,29.58,4,1,4,0.56
2012-6-14,71.1,60.9,51.8,60.4,55.8,49.6,98,85,58,30.56,30.06,6,1,6,0.01
2012-6-15,71.8,61.0,51.4,60.8,54.7,49.2,93,80,61,30.64,30.18,7,2,7,0.00
2012-6-16,66.6,59.5,54.1,58.4,54.7,2.0,94,84,72,30.67,30.23,7,2,7,0.00
2012-6-17,72.0,60.9,4.6,57.5,52.1,-12.3,88,74,52,30.59,30.10,7,2,7,0.00
2012-6-18,70.3,58.7,46.2,59.4,53.4,-7.0,94,83,67,30.14,30.09,5,1,5,0.00
2012-6-19,78.3,65.5,49.8,62.6,58.3,48.4,95,79,58,30.45,30.01,8,2,8,0.00
2012-6-20,98.6,78.6,63.1,76.7,69.7,-2.9,93,77,38,30.32,29.79,9,2,9,0.00
2012-6-21,97.7,82.5,72.5,74.0,71.1,68.1,92,71,40,30.16,29.67,6,1,6,0.00
2012-6-22,97.2,79.8,68.7,74.1,69.4,31.6,96,74,39,30.05,29.63,16,1,16,0.32
2012-6-23,87.8,73.1,60.6,70.6,66.1,-21.2,96,81,50,30.23,29.70,8,1,8,0.40
2012-6-24,86.9,72.5,59.7,66.7,59.2,48.2,97,67,31,30.25,29.83,4,1,4,0.00
2012-6-25,76.1,68.1,64.6,66.3,63.9,14.3,96,87,65,29.84,29.57,10,2,10,0.63
2012-6-26,77.0,64.0,58.3,64.7,60.7,57.1,97,90,63,29.60,29.49,6,1,6,0.73
2012-6-27,73.2,62.7,55.0,61.6,58.0,53.3,96,85,63,29.69,29.54,6,0,6,0.00
2012-6-28,87.3,70.9,62.1,65.7,60.9,57.1,88,72,39,29.71,29.64,6,1,6,0.00
2012-6-29,87.3,74.4,66.2,73.1,68.3,62.9,93,82,54,29.68,29.50,7,2,7,0.08
2012-6-30,94.8,79.5,64.2,69.0,63.3,51.9,88,61,24,29.68,29.57,8,2,8,0.00
2012-7-1,92.1,77.9,68.0,73.1,68.5,65.0,91,75,44,29.76,29.67,7,1,7,0.02
2012-7-2,85.5,74.0,64.4,68.7,64.6,59.7,95,75,45,29.83,29.74,4,1,4,0.04
2012-7-3,86.4,74.3,63.9,65.2,61.4,55.6,93,67,37,29.88,29.81,5,1,5,0.00
2012-7-4,88.9,74.8,69.4,73.8,69.7,65.1,94,85,57,29.82,29.62,8,2,8,0.18
2012-7-5,83.8,72.4,65.5,70.4,67.2,63.0,97,85,56,29.80,29.59,4,1,4,0.00
2012-7-6,86.2,74.8,52.5,69.4,65.4,50.8,94,74,53,30.23,29.67,4,1,4,0.00
2012-7-7,83.8,75.2,49.8,76.6,69.2,48.4,95,82,68,30.15,29.65,4,0,4,2.41
2012-7-8,90.1,77.2,68.4,69.7,66.5,63.8,87,72,42,29.81,29.70,4,1,4,0.00
2012-7-9,85.5,73.5,63.3,66.7,57.7,51.3,84,60,34,30.30,29.81,4,1,4,0.00
2012-7-10,85.8,72.0,61.7,64.6,58.6,48.8,93,67,30,30.07,29.94,4,1,4,0.00
2012-7-11,87.4,73.9,63.9,70.0,64.7,58.7,95,75,44,30.16,30.06,4,1,4,0.00
2012-7-12,90.3,74.9,63.0,68.7,61.8,53.7,96,67,31,30.17,30.08,6,2,6,0.00
2012-7-13,86.4,76.5,67.3,69.7,62.6,53.0,92,65,32,30.16,30.09,5,2,5,0.00
2012-7-14,95.9,79.4,69.4,70.3,66.9,63.5,92,67,39,30.10,30.01,4,1,4,0.00
2012-7-15,94.1,80.0,69.3,73.6,68.8,63.1,85,70,48,30.05,29.87,6,2,6,0.00
2012-7-16,88.0,78.9,73.4,73.2,71.4,68.5,93,79,58,29.84,29.69,5,1,5,0.00
2012-7-17,97.0,80.4,71.2,73.5,69.6,64.7,93,73,42,29.74,29.64,10,2,10,0.00
2012-7-18,92.3,84.1,77.9,75.7,71.8,67.4,80,67,52,29.76,29.65,5,2,5,0.00
2012-7-19,81.0,70.3,61.5,70.6,63.9,57.7,98,82,57,29.95,29.81,4,1,4,0.21
2012-7-20,72.5,67.4,60.6,64.0,61.5,58.2,93,82,66,30.05,29.97,4,0,4,0.00
2012-7-21,82.2,66.8,56.3,63.6,58.6,54.6,96,77,47,30.09,30.01,4,1,4,0.00
2012-7-22,86.7,71.5,58.5,64.7,60.0,56.1,96,70,40,30.12,30.07,7,2,7,0.00
2012-7-23,68.4,66.2,65.8,63.7,62.4,61.2,89,87,84,30.09,30.05,2,1,2,0.00
2012-7-24,92.3,83.5,71.6,76.5,73.8,70.1,97,75,50,29.58,29.45,6,2,6,0.46
2012-7-27,73.6,68.8,63.9,68.6,65.5,62.4,95,89,82,29.86,29.69,3,1,3,0.02
2012-7-28,80.6,68.8,63.3,70.3,66.4,62.2,98,92,71,29.95,29.86,4,1,4,0.35
2012-7-29,73.6,67.4,64.8,69.2,65.8,63.3,99,95,85,30.01,29.86,4,1,4,0.02
2012-7-30,83.1,73.1,63.0,67.8,64.9,61.1,98,77,51,30.09,30.01,6,2,6,0.02
2012-7-31,78.8,70.7,64.0,68.5,66.7,61.1,99,88,69,30.09,29.82,7,2,7,1.24
2012-8-1,86.9,73.8,66.9,72.8,68.2,65.9,99,84,60,29.90,29.82,9,1,9,1.25
2012-8-2,90.9,76.8,67.5,74.5,70.8,66.2,98,83,51,29.86,29.78,8,2,8,0.00
2012-8-3,92.1,81.5,73.0,77.4,74.5,71.3,97,80,60,30.04,29.85,7,2,7,0.00
2012-8-4,93.9,80.9,73.4,79.3,74.5,70.7,97,82,57,30.18,30.05,8,2,8,0.00
2012-8-5,90.1,82.2,75.7,77.9,75.6,73.8,94,81,65,30.18,29.91,11,4,11,0.00
2012-8-6,92.5,78.7,65.8,74.8,66.1,54.2,94,68,31,29.93,29.86,6,1,8,0.00
2012-8-7,83.7,72.2,61.3,67.4,63.9,59.4,95,76,52,29.99,29.92,8,1,8,0.00
2012-8-8,88.9,76.6,66.2,72.6,69.1,64.1,97,79,58,29.96,29.90,5,1,5,0.00
2012-8-9,92.7,79.1,69.4,73.8,71.0,67.4,98,78,49,29.94,29.85,7,2,7,0.00
2012-8-10,87.1,76.5,70.2,75.9,72.7,68.9,99,89,69,29.90,29.74,12,2,12,0.46
2012-8-11,86.7,77.3,72.3,77.1,74.3,72.0,99,91,69,29.90,29.77,12,2,12,0.72
2012-8-12,86.4,77.0,72.5,75.3,72.9,71.3,98,88,64,29.90,29.83,11,2,11,0.08
2012-8-13,88.9,77.1,68.9,72.2,69.5,66.6,99,79,54,29.90,29.84,7,1,7,0.00
2012-8-14,86.9,75.0,65.1,71.4,67.0,63.3,95,77,53,29.92,29.85,5,1,5,0.00
2012-8-15,79.9,72.7,67.3,72.8,70.0,66.4,98,92,77,29.89,29.79,9,0,9,0.27
2012-8-16,84.0,71.6,65.1,70.1,67.5,64.8,99,88,60,29.80,29.74,4,0,4,0.01
2012-8-17,89.8,76.7,64.8,70.8,67.1,61.1,94,74,41,29.81,29.73,9,2,9,0.00
2012-8-18,74.3,68.1,66.6,70.5,65.9,64.1,97,93,88,29.85,29.76,2,0,2,0.12
2012-8-19,67.3,67.3,67.3,64.9,64.9,64.9,92,92,92,29.84,29.84,0,0,0,0.12
2012-8-20,67.3,67.3,67.3,64.9,64.9,64.9,92,92,92,29.84,29.84,0,0,0,0.12
2012-8-21,92.5,75.1,67.6,74.2,69.2,66.6,98,83,50,29.91,29.85,5,1,5,0.00
2012-8-22,90.5,77.3,70.2,75.8,71.8,67.4,98,85,49,29.87,29.82,8,2,8,0.00
2012-8-23,86.5,75.2,70.3,76.9,73.5,69.0,99,95,70,29.85,29.71,7,2,7,1.18
2012-8-24,86.0,77.0,72.5,75.1,73.4,71.3,98,89,67,29.87,29.81,12,2,12,0.08
2012-8-25,83.7,73.7,67.1,74.4,66.4,61.3,95,79,52,30.27,29.79,7,2,7,0.58
2012-8-26,82.4,69.5,59.9,66.7,62.3,59.0,98,79,49,30.28,30.18,5,1,5,0.00
2012-8-27,85.1,72.6,55.8,72.0,66.7,54.9,98,83,59,30.19,29.87,9,2,9,0.00
2012-8-28,78.8,73.5,67.1,74.5,71.2,66.5,98,92,82,29.87,29.63,7,1,7,0.45
2012-8-29,75.0,64.8,56.8,66.5,56.7,52.6,98,77,52,29.92,29.77,5,1,5,0.01
2012-8-30,84.0,70.2,55.4,61.4,56.8,51.9,93,66,35,29.98,29.89,8,2,8,0.00
2012-8-31,91.0,81.6,67.6,68.8,61.7,55.7,77,53,32,29.91,29.72,10,3,10,0.00
2012-9-1,79.3,71.4,59.9,68.7,63.0,57.0,90,75,60,30.05,29.75,9,2,9,0.00
2012-9-2,78.3,67.5,57.6,62.9,60.0,55.7,95,78,52,30.06,30.00,7,1,7,0.00
2012-9-3,79.0,68.6,57.2,64.7,59.3,54.7,92,73,58,30.16,30.05,8,2,8,0.00
2012-9-4,76.5,69.7,57.2,73.7,67.1,54.9,99,92,79,30.10,29.82,7,1,7,0.11
2012-9-5,75.2,72.5,65.5,75.0,72.1,65.0,99,98,96,29.82,29.66,10,2,10,0.70
2012-9-6,75.0,68.7,61.2,68.5,65.1,60.9,99,88,72,29.84,29.75,5,1,5,0.01
2012-9-7,86.0,75.4,64.9,74.9,71.1,64.2,99,87,67,29.87,29.79,7,2,7,0.00
2012-9-8,83.5,77.0,71.8,74.6,72.2,69.8,98,86,67,29.85,29.58,15,4,15,0.15
2012-9-9,72.1,63.1,55.8,71.2,60.2,54.9,98,91,76,29.78,29.62,4,0,4,0.01
2012-9-10,71.8,62.5,55.6,59.0,53.8,46.4,99,75,50,29.94,29.76,7,2,7,0.00
2012-9-11,70.9,61.3,52.2,54.2,51.1,-9.0,90,70,48,30.21,29.94,7,1,7,0.00
2012-9-12,75.9,65.7,53.4,61.1,57.0,50.4,93,75,45,30.30,30.21,4,1,4,0.00
2012-9-13,79.9,68.4,58.3,65.6,61.3,56.9,97,79,60,30.31,30.21,7,2,7,0.00
2012-9-14,79.7,70.8,61.2,67.6,63.1,57.0,98,78,52,30.21,30.03,8,2,8,0.00
2012-9-15,71.6,64.4,54.0,67.4,57.7,49.5,99,79,61,30.03,29.89,6,1,6,0.02
2012-9-16,70.3,60.5,50.0,54.1,51.6,47.3,92,74,46,30.02,29.92,5,1,5,0.00
2012-9-17,70.0,63.9,51.8,58.3,54.2,49.0,92,72,50,30.04,29.96,4,1,4,0.00
2012-9-18,76.6,68.1,54.5,67.7,61.5,52.8,96,80,65,30.01,29.71,16,4,16,0.00
2012-9-19,73.4,64.0,53.4,70.2,57.1,48.4,99,80,48,30.10,29.66,12,1,12,0.56
2012-9-20,65.3,58.8,49.3,51.7,48.0,45.9,88,68,52,30.18,30.09,6,2,6,0.56
2012-9-21,64.2,58.2,48.2,57.1,52.8,45.2,94,83,68,30.09,29.97,4,1,4,0.00
2012-9-22,70.9,62.7,58.1,62.7,59.0,54.9,99,88,69,29.97,29.77,5,1,5,0.02
2012-9-23,73.8,64.0,52.7,66.7,52.0,40.5,97,68,33,30.01,29.74,8,1,8,0.00
2012-9-24,66.2,57.4,47.5,47.1,41.8,35.0,82,58,34,30.06,29.99,6,1,6,0.00
2012-9-25,72.0,64.1,43.3,49.2,44.8,36.3,87,52,30,30.14,30.06,12,3,12,0.00
2012-9-26,74.7,69.6,61.7,62.3,60.0,49.4,85,72,55,30.10,29.95,14,4,14,0.00
2012-9-27,68.0,61.2,49.3,62.2,52.4,44.6,91,74,49,30.17,29.93,7,1,7,0.00
2012-9-28,61.3,57.6,48.4,59.9,50.4,44.4,95,78,59,30.18,29.86,9,2,9,0.60
2012-9-29,61.7,57.3,55.2,60.7,56.2,53.4,99,96,93,29.87,29.79,6,1,6,0.22
2012-9-30,59.5,56.9,53.4,58.6,55.9,52.3,99,96,94,29.83,29.66,4,1,4,0.59
2012-10-1,70.5,62.4,50.2,53.5,49.5,44.7,96,65,42,29.86,29.68,11,2,11,0.59
2012-10-2,73.6,64.0,56.1,57.0,54.0,48.1,92,72,42,30.01,29.86,4,1,4,0.71
2012-10-3,66.6,62.9,59.4,66.0,62.3,57.0,99,98,92,30.07,29.99,3,0,3,0.72
2012-10-4,63.7,60.6,59.4,63.4,60.3,59.1,99,99,99,30.08,29.95,3,1,3,0.02
2012-10-5,72.5,62.3,58.8,66.4,60.7,58.5,99,95,70,29.97,29.87,4,0,4,0.00
2012-10-6,77.2,69.1,56.1,65.8,60.2,50.4,96,74,58,29.87,29.66,10,3,10,0.04
2012-10-7,62.8,54.2,47.7,50.4,42.8,34.7,88,67,40,30.00,29.82,4,1,4,0.12
2012-10-8,58.5,50.4,42.6,46.9,42.0,35.7,90,74,47,30.26,29.99,4,0,4,0.04
2012-10-9,58.1,54.7,51.3,49.8,47.2,44.0,85,76,68,30.24,30.06,8,2,8,0.05
2012-10-10,63.9,59.6,54.9,58.9,55.4,19.6,91,86,80,30.06,29.65,7,1,7,0.01
2012-10-11,62.1,51.8,42.6,51.6,33.1,21.2,87,52,23,30.09,29.73,7,2,7,0.01
2012-10-12,59.2,49.3,42.6,42.1,32.2,19.6,78,53,35,30.24,29.96,9,2,9,0.02
2012-10-13,54.9,45.9,39.4,31.1,19.4,2.8,66,39,14,30.42,30.24,8,1,8,0.02
2012-10-14,67.3,61.9,42.4,54.8,49.8,30.7,78,65,50,30.30,29.93,16,4,16,0.07
2012-10-15,72.3,68.9,61.7,59.8,57.8,54.8,78,68,61,29.93,29.60,11,5,11,0.07
2012-10-16,66.7,52.3,41.7,59.7,33.4,25.9,79,51,29,29.77,29.52,10,2,10,0.12
2012-10-17,57.6,48.7,36.7,38.6,36.1,29.3,82,63,38,29.95,29.77,4,1,4,0.12
2012-10-18,64.0,55.1,41.2,49.2,44.1,36.7,86,68,47,30.05,29.94,8,1,8,0.00
2012-10-19,69.1,64.8,51.1,66.2,57.9,44.8,92,79,58,30.02,29.69,10,3,10,0.08
2012-10-20,71.1,65.1,55.9,67.7,62.9,53.6,99,93,75,29.72,29.56,9,2,9,0.07
2012-10-21,63.9,55.0,46.9,53.3,39.4,30.9,92,59,30,29.82,29.67,9,1,9,0.01
2012-10-22,68.4,58.4,49.5,39.7,35.5,26.6,67,45,23,29.93,29.81,8,2,8,0.01
2012-10-23,62.8,54.0,47.1,45.3,39.8,32.3,78,60,33,30.03,29.92,4,1,4,0.00
2012-10-24,55.2,52.1,44.2,47.1,38.4,35.2,80,60,48,30.15,30.03,4,1,4,0.00
2012-10-25,61.0,49.6,38.5,46.5,40.6,33.0,83,72,46,30.25,30.14,4,0,4,0.00
2012-10-26,68.4,58.6,42.8,50.1,39.5,28.5,87,52,24,30.21,30.06,6,1,6,0.00
2012-10-27,63.7,55.3,45.1,51.6,46.7,40.6,86,73,58,30.09,29.93,25,1,25,0.00
2012-10-28,58.3,55.1,52.9,49.5,48.0,46.2,85,77,70,29.89,29.65,10,4,10,0.01
2012-10-29,62.2,58.3,54.0,59.0,54.5,48.9,96,87,80,29.64,29.10,21,7,21,0.63
2012-10-30,68.4,60.0,52.9,59.3,55.5,50.3,96,85,70,29.52,29.25,8,2,8,0.30
2012-10-31,57.7,52.5,45.3,56.6,48.2,40.6,96,85,68,29.51,29.40,4,0,4,0.01
2012-11-1,61.7,52.8,45.5,42.8,36.9,32.1,87,57,35,29.51,29.44,11,2,11,0.01
2012-11-2,57.0,50.6,42.8,41.0,33.7,28.8,79,53,39,29.53,29.45,5,1,5,0.01
2012-11-3,58.1,50.2,40.3,32.0,27.4,-9.7,72,43,10,29.68,29.53,8,2,8,0.01
2012-11-4,58.3,48.5,35.6,33.0,27.6,23.1,67,45,27,29.85,29.68,7,2,7,0.01
2012-11-5,46.6,40.3,34.0,28.1,17.3,9.0,65,40,31,30.04,29.85,8,2,8,0.02
2012-11-6,45.9,37.9,29.3,22.4,12.4,1.5,60,37,16,30.17,30.04,6,2,6,0.07
2012-11-7,46.0,42.9,39.6,35.3,29.0,20.5,80,59,41,30.07,29.60,20,7,20,0.71
2012-11-8,45.9,43.1,39.2,41.6,38.5,34.8,85,84,80,29.62,29.38,17,9,17,0.89
2012-11-9,55.8,43.7,37.0,35.7,25.2,8.2,84,51,18,30.00,29.62,9,2,9,0.00
2012-11-10,57.0,53.8,37.8,30.9,24.1,21.1,56,32,25,30.22,30.00,8,3,8,0.00
2012-11-11,54.3,54.2,50.9,47.6,24.1,23.6,86,31,30,30.42,30.22,3,3,5,0.00
2012-11-12,70.9,60.1,49.3,58.1,52.0,47.0,97,76,54,30.44,30.19,11,2,11,0.00
2012-11-13,64.2,49.9,41.7,58.8,44.8,32.0,88,83,64,30.33,30.09,9,2,9,0.38
2012-11-14,49.3,44.1,42.3,38.6,26.4,22.0,85,50,39,30.43,30.31,11,4,11,0.01
2012-11-15,44.8,43.5,42.3,31.1,29.1,25.3,61,57,48,30.35,30.21,8,4,8,0.00
2012-11-16,53.6,43.0,33.1,29.5,27.4,25.2,75,55,37,30.32,30.18,8,2,8,0.00
2012-11-17,50.7,42.7,29.3,29.0,25.3,-17.8,77,52,37,30.59,30.32,9,2,9,0.00
2012-11-18,54.9,50.1,29.7,31.8,21.1,18.6,81,35,24,30.63,30.53,8,4,8,0.00
2012-11-19,51.6,47.2,38.8,35.7,32.9,26.9,74,57,48,30.53,30.20,6,2,6,0.00
2012-11-20,52.2,47.6,43.5,32.8,30.0,-7.3,62,51,41,30.20,30.05,8,3,8,0.00
2012-11-21,59.4,51.0,44.6,41.3,36.3,30.2,76,58,36,30.16,30.07,8,2,8,0.00
2012-11-22,65.5,44.9,32.5,40.3,32.9,26.3,78,64,34,30.20,30.08,6,2,6,0.00
2012-11-23,60.3,45.7,30.0,41.2,35.9,24.9,86,70,38,29.98,29.59,8,1,8,0.00
2012-11-24,56.3,44.5,34.3,43.7,16.1,-5.6,90,41,10,29.59,29.44,15,3,15,0.00
2012-11-25,47.5,36.1,28.4,13.6,4.8,-9.1,52,29,10,29.81,29.54,15,2,15,0.00
2012-11-26,55.2,38.0,26.8,17.2,9.6,-6.1,62,36,10,30.18,29.80,9,2,9,0.00
2012-11-27,41.7,35.7,26.6,32.9,24.9,15.7,80,66,39,30.26,30.11,4,1,4,12.32
2012-11-28,41.0,34.8,25.5,34.0,26.5,19.3,79,71,62,30.10,30.02,13,3,13,0.05
2012-11-29,49.1,33.6,25.0,21.8,17.7,-22.5,78,54,22,30.21,30.09,49,1,49,0.01
2012-11-30,41.0,35.0,32.2,18.9,13.1,9.2,51,40,29,30.48,30.14,9,3,9,0.01
2012-12-1,44.6,39.7,34.2,36.8,27.8,10.2,74,63,36,30.54,30.42,7,2,7,0.04
2012-12-2,60.6,54.2,44.6,48.8,44.9,36.8,81,71,57,30.41,30.00,11,2,11,0.07
2012-12-3,67.8,49.7,33.3,46.6,33.9,26.8,85,58,24,30.23,30.00,10,1,10,0.07
2012-12-4,57.7,47.2,31.5,45.8,39.6,26.5,87,75,62,30.26,30.05,9,2,9,0.00
2012-12-5,61.0,49.1,37.4,50.8,29.0,10.1,86,48,29,30.05,29.80,13,2,13,0.05
2012-12-6,46.4,33.0,22.6,14.2,11.6,4.1,69,43,18,30.25,30.02,10,2,10,0.05
2012-12-7,50.5,44.1,22.6,38.8,33.5,14.0,84,67,49,30.24,29.98,6,1,6,0.09
2012-12-8,50.4,46.0,43.2,48.4,43.3,38.8,93,90,84,29.98,29.76,7,1,7,0.27
2012-12-9,52.0,45.8,39.9,42.7,32.4,24.1,95,60,39,30.22,29.87,11,3,11,0.32
2012-12-10,60.6,56.9,44.4,60.4,56.0,39.0,99,97,81,30.07,29.42,14,2,14,1.56
2012-12-11,57.9,44.1,35.1,57.7,33.3,18.2,99,68,35,30.05,29.43,6,1,6,1.59
2012-12-12,43.2,33.9,27.9,21.0,16.8,5.8,74,52,23,30.36,30.05,8,1,8,1.59
2012-12-13,54.1,33.3,25.5,33.7,22.4,18.6,81,66,30,30.39,30.23,5,0,5,0.00
2012-12-14,55.2,36.8,25.0,28.3,17.8,0.7,83,52,12,30.23,29.98,13,1,13,0.01
2012-12-15,50.2,38.6,28.8,27.0,16.5,3.3,78,42,18,30.26,30.08,10,3,10,0.01
2012-12-16,37.8,37.2,34.3,20.3,19.2,15.5,50,48,44,30.25,30.15,11,8,11,0.01
2012-12-17,37.4,37.4,37.4,20.0,20.0,20.0,49,49,49,30.15,30.15,11,11,11,0.01
2012-12-18,37.4,37.4,37.4,20.0,20.0,20.0,49,49,49,30.15,30.15,11,11,11,0.01
2012-12-19,45.3,40.0,37.4,28.7,22.4,20.0,56,49,44,31.19,30.15,12,8,12,0.01
2012-12-20,44.8,40.8,38.8,32.8,27.5,23.8,75,59,47,30.76,30.49,14,2,14,0.00
2012-12-21,52.9,45.9,38.7,51.2,39.6,18.9,94,79,27,30.60,29.70,20,5,20,0.60
2012-12-22,41.2,34.9,28.9,31.5,15.1,-3.2,75,47,17,30.20,29.80,14,3,14,0.01
2012-12-23,43.7,32.8,24.1,18.4,9.4,-4.2,68,41,14,30.43,30.20,13,2,13,0.00
2012-12-24,44.6,33.1,23.5,19.9,11.1,-7.5,72,45,12,30.64,30.43,6,1,6,0.00
2012-12-25,37.9,33.2,29.8,33.8,27.2,20.2,85,79,66,30.76,30.53,8,1,8,0.08
2012-12-26,39.0,33.0,25.2,24.1,20.3,16.8,78,60,45,30.87,30.76,5,1,5,0.08
2012-12-27,48.2,43.9,37.6,43.4,39.0,32.3,87,83,79,30.44,29.85,18,9,18,0.53
2012-12-28,41.2,31.7,25.7,24.9,15.2,7.1,74,52,24,30.58,30.14,8,1,8,0.00
2012-12-29,39.0,32.4,24.3,33.7,24.3,16.2,89,72,56,30.58,29.85,11,2,11,0.66
2012-12-30,33.3,28.0,21.6,30.4,14.6,0.9,89,59,38,30.52,29.89,4,0,4,0.00
2012-12-31,35.2,27.2,16.2,21.8,14.4,0.1,71,59,39,30.63,30.34,0,0,0,0.00
2013-1-1,40.3,33.7,26.6,21.6,8.6,-2.0,64,36,22,30.44,30.29,11,2,11,0.06